createdAt,value
2022-08-11T00:04:39.584Z,14.15
2022-08-11T00:09:42.318Z,14.21
2022-08-11T00:14:45.008Z,14.36
2022-08-11T00:20:11.856Z,14.13
2022-08-11T00:25:19.078Z,14.10
2022-08-11T00:30:21.290Z,14.17
2022-08-11T00:35:55.336Z,13.94
2022-08-11T00:41:00.021Z,13.97
2022-08-11T00:46:26.511Z,14.13
2022-08-11T00:52:05.653Z,14.14
2022-08-11T00:57:36.860Z,14.01
2022-08-11T01:02:59.624Z,14.03
2022-08-11T01:08:13.749Z,13.86
2022-08-11T01:13:37.652Z,13.90
2022-08-11T01:18:55.016Z,13.83
2022-08-11T01:24:18.552Z,13.76
2022-08-11T01:29:58.337Z,13.71
2022-08-11T01:35:30.965Z,13.65
2022-08-11T01:40:42.598Z,13.48
2022-08-11T01:45:56.594Z,13.23
2022-08-11T01:51:31.261Z,13.52
2022-08-11T01:56:57.338Z,13.15
2022-08-11T02:02:46.220Z,13.41
2022-08-11T02:08:02.002Z,13.33
2022-08-11T02:13:11.755Z,13.25
2022-08-11T02:18:53.560Z,13.06
2022-08-11T02:24:07.882Z,12.97
2022-08-11T02:29:13.905Z,12.81
2022-08-11T02:34:39.536Z,13.17
2022-08-11T02:40:25.386Z,13.24
2022-08-11T02:45:46.510Z,13.15
2022-08-11T02:51:10.009Z,13.12
2022-08-11T02:56:23.207Z,12.86
2022-08-11T03:01:50.610Z,13.08
2022-08-11T03:06:54.416Z,13.11
2022-08-11T03:12:30.122Z,12.86
2022-08-11T03:18:10.799Z,13.25
2022-08-11T03:23:44.960Z,13.09
2022-08-11T03:29:18.333Z,13.35
2022-08-11T03:34:27.483Z,12.99
2022-08-11T03:39:59.592Z,13.49
2022-08-11T03:45:29.181Z,13.60
2022-08-11T03:50:44.879Z,13.72
2022-08-11T03:56:24.939Z,13.89
2022-08-11T04:01:55.750Z,14.07
2022-08-11T04:07:07.041Z,14.21
2022-08-11T04:12:35.639Z,14.36
2022-08-11T04:18:11.469Z,14.51
2022-08-11T04:24:35.439Z,14.68
2022-08-11T04:29:09.699Z,14.88
2022-08-11T04:34:51.837Z,15.07
2022-08-11T04:40:12.652Z,15.22
2022-08-11T04:46:01.519Z,15.35
2022-08-11T04:51:48.745Z,15.44
2022-08-11T04:57:20.220Z,15.17
2022-08-11T05:02:50.616Z,15.73
2022-08-11T05:08:15.306Z,15.86
2022-08-11T05:13:47.184Z,15.98
2022-08-11T05:19:12.116Z,16.10
2022-08-11T05:24:54.747Z,16.16
2022-08-11T05:30:34.488Z,16.48
2022-08-11T05:36:01.649Z,16.63
2022-08-11T05:41:23.886Z,15.32
2022-08-11T05:46:46.727Z,16.84
2022-08-11T05:52:12.963Z,16.74
2022-08-11T05:57:49.461Z,17.36
2022-08-11T06:02:55.630Z,17.27
2022-08-11T06:08:01.315Z,16.83
2022-08-11T06:13:05.309Z,17.76
2022-08-11T06:18:12.323Z,18.09
2022-08-11T06:23:18.234Z,17.68
2022-08-11T06:28:30.828Z,18.38
2022-08-11T06:33:51.512Z,18.58
2022-08-11T06:39:10.187Z,18.54
2022-08-11T06:44:13.451Z,18.83
2022-08-11T06:49:35.712Z,18.92
2022-08-11T06:54:41.663Z,19.07
2022-08-11T07:00:02.860Z,18.81
2022-08-11T07:05:21.824Z,19.45
2022-08-11T07:11:05.585Z,19.05
2022-08-11T07:16:12.118Z,19.60
2022-08-11T07:22:00.281Z,19.84
2022-08-11T07:27:23.657Z,19.67
2022-08-11T07:32:31.211Z,19.78
2022-08-11T07:37:34.203Z,20.18
2022-08-11T07:42:36.649Z,20.02
2022-08-11T07:47:58.441Z,20.26
2022-08-11T07:53:01.686Z,20.51
2022-08-11T07:58:23.021Z,20.58
2022-08-11T08:03:53.661Z,20.15
2022-08-11T08:09:16.597Z,20.70
2022-08-11T08:14:38.255Z,20.29
2022-08-11T08:19:44.801Z,21.00
2022-08-11T08:24:47.650Z,20.62
2022-08-11T08:30:08.421Z,20.85
2022-08-11T08:35:13.941Z,20.88
2022-08-11T08:40:16.201Z,21.37
2022-08-11T08:45:26.236Z,20.63
2022-08-11T08:50:53.228Z,20.58
2022-08-11T08:55:57.149Z,21.32
2022-08-11T09:01:01.300Z,21.71
2022-08-11T09:06:06.281Z,21.61
2022-08-11T09:11:27.568Z,21.29
2022-08-11T09:16:30.304Z,21.85
2022-08-11T09:21:48.396Z,22.40
2022-08-11T09:27:04.213Z,22.01
2022-08-11T09:32:09.601Z,22.32
2022-08-11T09:37:54.045Z,22.35
2022-08-11T09:43:27.560Z,22.20
2022-08-11T09:48:32.176Z,22.17
2022-08-11T09:53:40.779Z,22.15
2022-08-11T09:58:45.093Z,22.11
2022-08-11T10:03:48.102Z,21.92
2022-08-11T10:08:52.668Z,22.16
2022-08-11T10:14:33.795Z,21.78
2022-08-11T10:19:39.365Z,22.23
2022-08-11T10:25:03.170Z,22.42
2022-08-11T10:30:25.906Z,22.37
2022-08-11T10:35:31.414Z,22.82
2022-08-11T10:40:46.462Z,22.78
2022-08-11T10:46:30.135Z,22.39
2022-08-11T10:51:54.396Z,23.07
2022-08-11T10:57:19.924Z,23.04
2022-08-11T11:02:22.475Z,23.03
2022-08-11T11:07:43.990Z,23.07
2022-08-11T11:13:14.223Z,23.35
2022-08-11T11:18:24.867Z,23.39
2022-08-11T11:23:47.620Z,23.51
2022-08-11T11:29:27.892Z,23.51
2022-08-11T11:34:53.420Z,23.75
2022-08-11T11:39:57.985Z,23.31
2022-08-11T11:45:01.480Z,23.64
2022-08-11T11:50:06.889Z,23.67
2022-08-11T11:55:10.021Z,23.59
2022-08-11T12:00:33.144Z,24.02
2022-08-11T12:05:36.847Z,24.05
2022-08-11T12:11:18.825Z,23.76
2022-08-11T12:16:34.484Z,24.13
2022-08-11T12:22:00.832Z,24.22
2022-08-11T12:27:25.553Z,23.95
2022-08-11T12:32:31.562Z,23.74
2022-08-11T12:37:38.544Z,24.13
2022-08-11T12:43:20.806Z,24.05
2022-08-11T12:48:58.358Z,24.42
2022-08-11T12:54:18.928Z,24.29
2022-08-11T12:59:40.628Z,24.14
2022-08-11T13:04:56.487Z,24.18
2022-08-11T13:10:02.025Z,24.29
2022-08-11T13:15:06.283Z,24.53
2022-08-11T13:20:10.774Z,24.69
2022-08-11T13:25:15.104Z,24.58
2022-08-11T13:30:40.357Z,24.74
2022-08-11T13:35:49.760Z,24.27
2022-08-11T13:40:56.073Z,24.62
2022-08-11T13:46:18.749Z,24.62
2022-08-11T13:51:34.700Z,24.80
2022-08-11T13:56:42.619Z,24.64
2022-08-11T14:02:21.285Z,24.94
2022-08-11T14:07:15.381Z,24.45
2022-08-11T14:12:45.666Z,24.62
2022-08-11T14:18:05.282Z,24.11
2022-08-11T14:23:08.962Z,23.57
2022-08-11T14:28:29.586Z,23.97
2022-08-11T14:33:58.074Z,24.26
2022-08-11T14:38:57.926Z,24.25
2022-08-11T14:44:18.664Z,24.36
2022-08-11T14:49:22.333Z,24.08
2022-08-11T14:54:48.570Z,24.09
2022-08-11T14:59:51.395Z,23.85
2022-08-11T15:04:53.709Z,23.55
2022-08-11T15:10:15.521Z,23.93
2022-08-11T15:15:56.615Z,23.45
2022-08-11T15:21:17.083Z,23.70
2022-08-11T15:26:41.756Z,23.34
2022-08-11T15:32:02.500Z,23.29
2022-08-11T15:37:26.814Z,23.24
2022-08-11T15:42:48.087Z,23.23
2022-08-11T15:47:58.412Z,23.14
2022-08-11T15:53:12.689Z,23.19
2022-08-11T15:58:34.406Z,22.91
2022-08-11T16:04:12.584Z,22.94
2022-08-11T16:09:18.310Z,22.49
2022-08-11T16:14:41.821Z,22.55
2022-08-11T16:19:44.754Z,22.55
2022-08-11T16:27:03.507Z,22.55
2022-08-11T16:30:15.194Z,22.31
2022-08-11T16:35:38.457Z,22.26
2022-08-11T16:40:42.426Z,22.07
2022-08-11T16:46:03.697Z,22.00
2022-08-11T16:51:07.629Z,21.86
2022-08-11T16:56:12.341Z,21.72
2022-08-11T17:01:15.368Z,21.46
2022-08-11T17:06:37.106Z,21.41
2022-08-11T17:12:08.469Z,21.39
2022-08-11T17:17:26.885Z,21.34
2022-08-11T17:22:49.156Z,20.84
2022-08-11T17:27:52.912Z,20.99
2022-08-11T17:33:13.811Z,20.41
2022-08-11T17:38:20.952Z,20.90
2022-08-11T17:43:41.709Z,20.27
2022-08-11T17:48:47.813Z,20.47
2022-08-11T17:54:23.962Z,20.15
2022-08-11T17:59:49.112Z,20.25
2022-08-11T18:04:52.959Z,19.96
2022-08-11T18:10:13.799Z,20.03
2022-08-11T18:15:35.224Z,19.71
2022-08-11T18:20:56.385Z,19.49
2022-08-11T18:26:19.816Z,19.44
2022-08-11T18:31:41.434Z,19.14
2022-08-11T18:37:19.563Z,18.67
2022-08-11T18:42:46.866Z,19.29
2022-08-11T18:48:11.407Z,19.25
2022-08-11T18:53:33.706Z,18.67
2022-08-11T18:58:55.106Z,18.65
2022-08-11T19:04:17.473Z,18.86
2022-08-11T19:09:43.183Z,18.91
2022-08-11T19:15:05.017Z,18.32
2022-08-11T19:20:35.499Z,18.61
2022-08-11T19:25:56.964Z,18.42
2022-08-11T19:31:19.283Z,18.15
2022-08-11T19:36:41.724Z,18.13
2022-08-11T19:42:03.547Z,17.86
2022-08-11T19:47:24.305Z,17.96
2022-08-11T19:52:48.217Z,18.05
2022-08-11T19:58:09.557Z,17.99
2022-08-11T20:03:30.921Z,17.96
2022-08-11T20:08:56.439Z,17.64
2022-08-11T20:14:20.210Z,17.45
2022-08-11T20:19:54.717Z,17.17
2022-08-11T20:25:17.659Z,17.25
2022-08-11T20:30:38.344Z,17.38
2022-08-11T20:36:01.620Z,17.44
2022-08-11T20:41:23.426Z,17.23
2022-08-11T20:46:44.715Z,17.43
2022-08-11T20:52:06.476Z,16.88
2022-08-11T20:57:58.629Z,16.99
2022-08-11T21:03:12.911Z,16.96
2022-08-11T21:08:35.233Z,16.76
2022-08-11T21:13:58.618Z,17.13
2022-08-11T21:20:01.152Z,17.07
2022-08-11T21:25:28.006Z,16.97
2022-08-11T21:30:49.589Z,16.18
2022-08-11T21:36:10.851Z,16.78
2022-08-11T21:41:31.670Z,16.02
2022-08-11T21:46:53.429Z,16.53
2022-08-11T21:52:14.628Z,15.87
2022-08-11T21:57:35.803Z,15.80
2022-08-11T22:03:08.902Z,16.30
2022-08-11T22:08:30.141Z,16.50
2022-08-11T22:14:00.785Z,15.49
2022-08-11T22:19:27.615Z,15.43
2022-08-11T22:24:49.390Z,16.06
2022-08-11T22:30:10.104Z,15.86
2022-08-11T22:35:31.399Z,15.98
2022-08-11T22:40:53.071Z,15.60
2022-08-11T22:46:13.858Z,15.67
2022-08-11T22:51:37.101Z,15.94
2022-08-11T22:56:57.901Z,14.87
2022-08-11T23:02:19.314Z,15.73
2022-08-11T23:07:50.734Z,15.51
2022-08-11T23:13:13.194Z,15.37
2022-08-11T23:18:34.424Z,15.35
2022-08-11T23:23:55.922Z,15.37
2022-08-11T23:29:17.085Z,15.41
2022-08-11T23:35:02.704Z,15.07
2022-08-11T23:40:21.403Z,15.38
2022-08-11T23:45:44.901Z,14.73
2022-08-11T23:51:06.573Z,15.12
2022-08-11T23:56:29.205Z,15.07
